Latest Weather Observations for Normanton

IDQ60801

Issued at 11:02 am EST Tuesday 24 January 2017 (issued every 30 minutes, with the page automatically refreshed every 10 minutes)

About weather observations | Map of weather stations | Latest weather observations for QLD | Other Formats
Station Details ID: 029063 Name: NORMANTON AIRPORT Lat: -17.69 Lon: 141.07 Height: 18.42 m
Data from the previous 72 hours. | See also: Recent months at Normanton
Date/Time
EST
Temp
°C
App
Temp
°C
Dew
Point
°C
Rel
Hum
%
Delta-T
°C
Wind Press
QNH
hPa
Press
MSL
hPa
Rain since
9am
mm
Dir  Spd
km/h
Gust
km/h
Spd
kts
Gust
kts
24/11:00am 31.8 32.9 21.9 55 6.7 NNE 19 28 10 15 1011.4 - 0.0
24/10:30am 31.6 33.5 23.4 61 5.7 N 19 28 10 15 1011.6 - 0.0
24/10:00am 31.4 33.9 23.8 64 5.3 NNE 17 28 9 15 1011.6 - 0.0
24/09:30am 30.7 32.6 22.8 62 5.4 NNE 17 28 9 15 1011.6 - 0.0
24/09:00am 29.8 31.9 22.5 65 5.0 NNE 15 26 8 14 1011.4 1011.2 0.0
24/08:30am 29.2 32.2 23.4 71 4.0 NE 13 19 7 10 1011.1 - 0.0
24/08:00am 28.1 31.4 23.9 78 2.9 ENE 13 20 7 11 1010.6 - 0.0
24/07:30am 27.4 31.0 23.8 81 2.5 ENE 11 19 6 10 1010.4 - 0.0
24/07:00am 26.8 30.5 23.9 84 2.0 NE 11 17 6 9 1010.0 - 0.0
24/06:30am 26.3 30.6 24.2 88 1.4 ENE 9 13 5 7 1009.9 - 0.0
24/06:00am 26.6 30.5 24.3 87 1.6 E 11 15 6 8 1009.7 1009.5 0.0
24/05:30am 26.9 30.8 24.2 85 1.9 NE 11 17 6 9 1009.1 - 0.0
24/05:00am 26.9 31.0 24.5 87 1.7 NE 11 20 6 11 1008.8 - 0.0
24/04:30am 26.7 30.9 24.7 89 1.4 NE 11 17 6 9 1008.7 - 0.0
24/04:00am 26.8 31.4 24.8 89 1.4 ENE 9 17 5 9 1008.7 - 0.0
24/03:30am 27.1 31.9 25.1 89 1.4 E 9 13 5 7 1008.7 - 0.0
24/03:00am 27.3 32.2 25.3 89 1.4 ENE 9 13 5 7 1008.9 1008.7 0.0
24/02:30am 27.5 32.8 25.3 88 1.5 NE 7 11 4 6 1009.0 - 0.0
24/02:00am 27.8 32.7 25.2 86 1.8 NE 9 13 5 7 1009.1 - 0.0
24/01:30am 27.9 33.5 25.7 88 1.6 N 7 9 4 5 1009.3 - 0.0
24/01:00am 28.0 33.5 25.6 87 1.7 NE 7 11 4 6 1009.3 - 0.0
24/12:30am 28.0 33.4 25.4 86 1.8 NNE 7 11 4 6 1009.5 - 0.0
24/12:00am 28.5 33.6 25.5 84 2.1 NE 9 15 5 8 1010.1 1010.0 0.0
 
Date/Time
EST
Temp
°C
App
Temp
°C
Dew
Point
°C
Rel
Hum
%
Delta-T
°C
Wind Press
QNH
hPa
Press
MSL
hPa
Rain since
9am
mm
Dir  Spd
km/h
Gust
km/h
Spd
kts
Gust
kts
23/11:30pm 28.6 33.2 25.4 83 2.3 N 11 17 6 9 1010.1 - 0.0
23/11:00pm 28.7 33.0 25.5 83 2.3 N 13 19 7 10 1010.0 - 0.0
23/10:30pm 28.8 32.8 25.6 83 2.3 N 15 19 8 10 1010.0 - 0.0
23/10:00pm 29.0 33.1 25.2 80 2.7 N 13 17 7 9 1009.7 - 0.0
23/09:30pm 29.2 33.2 25.0 78 2.9 N 13 20 7 11 1009.3 - 0.0
23/09:00pm 29.5 33.0 24.8 76 3.3 N 15 20 8 11 1009.0 - 0.0
23/08:30pm 29.7 33.6 25.4 78 3.0 N 15 20 8 11 1009.1 - 0.0
23/08:00pm 30.0 33.0 25.3 76 3.3 N 19 24 10 13 1008.9 - 0.0
23/07:30pm 30.2 32.7 24.8 73 3.8 N 20 26 11 14 1008.5 - 0.0
23/07:00pm 30.6 32.9 25.7 75 3.5 N 24 33 13 18 1007.9 - 0.0
23/06:30pm 31.2 33.7 24.8 69 4.5 NNW 20 28 11 15 1007.3 - 0.0
23/06:00pm 32.3 35.3 25.6 67 4.8 NNW 20 30 11 16 1006.5 1006.2 0.0
23/05:30pm 32.8 34.2 24.8 62 5.6 NNW 26 33 14 18 1006.2 - 0.0
23/05:00pm 33.3 35.0 24.7 60 6.1 N 24 28 13 15 1005.9 - 0.0
23/04:30pm 34.8 35.5 21.5 46 9.0 NNE 20 32 11 17 1005.7 - 0.0
23/04:00pm 34.7 35.8 22.4 48 8.5 NNE 20 28 11 15 1005.9 - 0.0
23/03:30pm 34.7 36.8 23.1 51 8.0 NNE 17 28 9 15 1006.3 - 0.0
23/03:00pm 34.6 36.0 22.6 49 8.3 NE 19 28 10 15 1006.8 1006.6 0.0
23/02:30pm 34.2 36.4 23.2 52 7.6 NNE 17 26 9 14 1007.2 - 0.0
23/02:00pm 33.8 35.7 23.5 55 7.2 NNE 19 32 10 17 1007.4 - 0.0
23/01:30pm 33.1 35.2 23.1 55 6.9 NNE 17 32 9 17 1007.8 - 0.0
23/01:00pm 33.6 34.8 22.1 51 7.9 NNE 19 32 10 17 1008.3 - 0.0
23/12:30pm 33.7 36.0 23.4 55 7.2 NE 17 26 9 14 1008.5 - 0.0
23/12:00pm 32.6 34.8 23.3 58 6.4 NNE 17 26 9 14 1008.8 1008.7 0.0
23/11:30am 32.4 34.6 23.9 61 5.9 NE 19 24 10 13 1008.9 - 0.0
23/11:00am 31.6 34.9 24.5 66 5.0 NNE 15 24 8 13 1008.9 - 0.0
23/10:30am 31.2 34.4 24.3 66 4.8 NE 15 24 8 13 1008.9 - 0.0
23/10:00am 29.6 33.6 25.1 77 3.2 NE 13 20 7 11 1008.9 - 0.0
23/09:30am 30.3 34.3 25.6 76 3.3 ENE 15 24 8 13 1008.9 - 0.0
23/09:00am 29.2 33.7 25.8 82 2.4 ENE 13 19 7 10 1009.0 1008.8 11.6
23/08:30am 28.2 32.6 25.6 86 1.8 ENE 13 19 7 10 1008.6 - 11.4
23/08:00am 27.7 32.8 26.1 91 1.1 ENE 11 17 6 9 1008.6 - 11.4
23/07:30am 27.3 32.2 25.9 92 1.0 NE 11 17 6 9 1008.6 - 11.4
23/07:00am 27.0 31.6 25.9 94 0.8 E 13 22 7 12 1008.6 - 11.4
23/06:30am 26.8 32.5 25.9 95 0.6 E 7 11 4 6 1008.1 - 11.4
23/06:00am 26.9 32.2 25.9 94 0.7 ENE 9 13 5 7 1007.6 1007.4 11.4
23/05:30am 27.0 32.7 25.6 92 1.0 E 6 9 3 5 1007.1 - 11.4
23/05:00am 27.4 33.0 25.8 91 1.1 NNE 7 11 4 6 1006.7 - 11.4
23/04:30am 27.6 32.7 25.6 89 1.4 NNE 9 15 5 8 1006.6 - 11.4
23/04:00am 27.6 32.7 25.6 89 1.4 NNE 9 13 5 7 1006.4 - 11.4
23/03:30am 27.8 32.7 25.8 89 1.4 N 11 15 6 8 1006.4 - 11.4
23/03:00am 28.0 32.6 26.0 89 1.4 N 13 17 7 9 1006.6 1006.4 11.4
23/02:30am 27.9 32.6 26.1 90 1.3 N 13 17 7 9 1006.6 - 11.4
23/02:00am 27.8 32.9 26.2 91 1.1 N 11 15 6 8 1006.8 - 11.4
23/01:30am 27.5 33.0 26.1 92 1.0 N 9 13 5 7 1007.0 - 11.4
23/01:00am 27.5 32.8 25.9 91 1.1 NNW 9 11 5 6 1007.1 - 11.4
23/12:30am 27.7 32.8 25.5 88 1.5 N 9 11 5 6 1007.5 - 11.4
23/12:00am 27.7 33.3 25.5 88 1.6 N 6 7 3 4 1007.9 1007.7 11.4
 
Date/Time
EST
Temp
°C
App
Temp
°C
Dew
Point
°C
Rel
Hum
%
Delta-T
°C
Wind Press
QNH
hPa
Press
MSL
hPa
Rain since
9am
mm
Dir  Spd
km/h
Gust
km/h
Spd
kts
Gust
kts
22/11:30pm 27.6 33.2 25.4 88 1.5 NNE 6 9 3 5 1008.1 - 11.4
22/11:00pm 27.6 32.7 25.6 89 1.4 N 9 13 5 7 1008.1 - 11.4
22/10:30pm 27.4 31.9 25.2 88 1.5 N 11 15 6 8 1007.9 - 11.4
22/10:00pm 27.4 31.6 24.7 85 1.9 N 11 15 6 8 1007.7 - 11.4
22/09:30pm 27.5 32.3 24.1 82 2.3 NNE 6 9 3 5 1007.7 - 11.4
22/09:00pm 27.8 32.2 23.8 79 2.8 N 7 13 4 7 1007.5 1007.2 11.4
22/08:30pm 27.7 32.4 23.9 80 2.6 NE 6 9 3 5 1007.0 - 11.4
22/08:00pm 27.9 31.6 23.3 76 3.1 ENE 9 15 5 8 1006.5 - 11.4
22/07:30pm 28.0 31.3 23.8 78 2.9 E 13 20 7 11 1006.8 - 11.4
22/07:00pm 28.4 33.2 24.4 79 2.8 NNE 7 13 4 7 1006.7 - 11.4
22/06:30pm 29.0 31.9 23.9 74 3.5 N 15 22 8 12 1006.4 - 11.4
22/06:00pm 28.8 32.5 24.6 78 2.9 N 13 17 7 9 1005.8 1005.7 11.4
22/05:30pm 27.6 31.8 24.8 85 2.0 NNW 11 17 6 9 1005.7 - 11.4
22/05:00pm 27.6 31.1 24.8 85 2.0 NNW 15 20 8 11 1005.8 - 11.4
22/04:30pm 26.9 29.9 24.7 88 1.5 WNW 17 24 9 13 1005.9 - 11.4
22/04:00pm 26.2 31.3 25.0 93 0.8 NW 7 15 4 8 1006.2 - 10.6
22/03:30pm 28.0 29.5 25.0 84 2.1 NNW 26 35 14 19 1006.4 - 0.4
22/03:00pm 32.0 33.9 23.8 62 5.7 SSE 20 35 11 19 1005.8 1005.6 0.2
22/02:30pm 33.4 37.5 24.0 58 6.6 N 9 15 5 8 1006.0 - 0.2
22/02:00pm 33.7 37.9 24.8 59 6.3 NNW 11 17 6 9 1006.4 - 0.2
22/01:30pm 33.4 36.1 25.6 63 5.6 NNW 22 28 12 15 1006.9 - 0.0
22/01:00pm 32.2 38.5 26.5 72 4.1 E 6 9 3 5 1007.2 - 0.0
22/12:30pm 33.8 38.7 24.4 58 6.6 ESE 6 15 3 8 1007.5 - 0.0
22/12:00pm 33.9 39.8 25.3 60 6.1 ENE 4 13 2 7 1007.8 1007.6 0.0
22/11:30am 32.9 38.0 24.9 63 5.6 NNE 7 11 4 6 1008.2 - 0.0
22/11:00am 32.1 37.8 24.4 63 5.4 E 2 7 1 4 1008.6 - 0.0
22/10:30am 31.8 36.9 24.9 67 4.9 N 7 13 4 7 1009.0 - 0.0
22/10:00am 31.4 37.0 25.5 71 4.2 NNW 6 11 3 6 1009.1 - 0.0
22/09:30am 30.3 35.0 24.9 73 3.8 NNW 9 13 5 7 1009.2 - 0.0
22/09:00am 30.1 35.9 26.0 78 2.9 N 7 13 4 7 1009.1 1008.9 0.0
22/08:30am 29.5 36.4 26.3 83 2.3 N 2 7 1 4 1009.1 - 0.0
22/08:00am 28.8 35.1 26.0 85 2.0 ENE 4 7 2 4 1008.9 - 0.0
22/07:30am 28.3 35.7 26.5 90 1.3 CALM 0 0 0 0 1008.6 - 0.0
22/07:00am 27.6 35.0 26.5 94 0.8 CALM 0 0 0 0 1008.5 - 0.0
22/06:30am 27.1 34.3 26.2 95 0.6 CALM 0 0 0 0 1008.1 - 0.0
22/06:00am 27.0 33.0 26.1 95 0.6 NNE 6 7 3 4 1007.7 1007.5 0.0
22/05:30am 27.0 33.3 25.9 94 0.8 N 4 7 2 4 1007.6 - 0.0
22/05:00am 27.1 34.0 25.7 92 1.0 CALM 0 0 0 0 1007.3 - 0.0
22/04:30am 27.7 34.5 26.1 91 1.1 N 2 6 1 3 1007.4 - 0.0
22/04:00am 27.7 32.8 26.1 91 1.1 N 11 15 6 8 1007.4 - 0.0
22/03:30am 27.4 34.5 26.0 92 1.0 CALM 0 0 0 0 1007.4 - 0.0
22/03:00am 27.7 33.3 26.3 92 1.0 NNW 9 13 5 7 1007.3 1007.1 0.0
22/02:30am 27.8 33.7 26.7 94 0.8 NNW 9 11 5 6 1007.1 - 0.0
22/02:00am 27.5 34.9 26.4 94 0.8 CALM 0 0 0 0 1007.1 - 0.0
22/01:30am 27.8 34.8 26.4 92 1.0 NNW 2 9 1 5 1007.1 - 0.0
22/01:00am 28.0 35.5 26.6 92 1.0 CALM 0 0 0 0 1007.5 - 0.0
22/12:30am 27.8 34.9 26.0 90 1.3 CALM 0 0 0 0 1007.9 - 0.0
22/12:00am 28.4 35.6 26.2 88 1.6 CALM 0 6 0 3 1008.5 1008.3 0.0
 
Date/Time
EST
Temp
°C
App
Temp
°C
Dew
Point
°C
Rel
Hum
%
Delta-T
°C
Wind Press
QNH
hPa
Press
MSL
hPa
Rain since
9am
mm
Dir  Spd
km/h
Gust
km/h
Spd
kts
Gust
kts
21/11:30pm 28.7 34.7 26.1 86 1.8 NW 6 7 3 4 1009.0 - 0.0
21/11:00pm 28.8 34.4 25.8 84 2.1 NW 7 9 4 5 1009.1 - 0.0
21/10:30pm 29.1 34.4 25.9 83 2.3 NNW 9 13 5 7 1008.9 - 0.0
21/10:00pm 29.3 34.5 25.7 81 2.5 NNW 9 11 5 6 1008.5 - 0.0
21/09:30pm 29.3 34.4 25.5 80 2.7 N 9 13 5 7 1008.1 - 0.0
21/09:00pm 29.7 34.6 25.2 77 3.2 NW 9 13 5 7 1007.4 1007.2 0.0
21/08:30pm 29.8 34.6 25.1 76 3.3 NNW 9 11 5 6 1007.1 - 0.0
21/08:00pm 30.4 34.3 24.8 72 3.9 NNW 13 17 7 9 1006.6 - 0.0
21/07:30pm 30.7 34.9 24.1 68 4.6 NW 9 13 5 7 1006.6 - 0.0
21/07:00pm 31.3 34.1 23.7 64 5.3 NW 15 19 8 10 1006.3 - 0.0
21/06:30pm 32.1 34.3 24.2 63 5.5 NNW 20 26 11 14 1005.7 - 0.0
21/06:00pm 32.8 35.0 24.3 61 6.0 NNW 20 26 11 14 1005.4 1005.2 0.0
21/05:30pm 32.7 35.8 24.2 61 5.9 NW 15 19 8 10 1005.5 - 0.0
21/05:00pm 33.1 35.9 23.7 57 6.5 NNW 15 20 8 11 1005.5 - 0.0
21/04:30pm 33.1 35.5 24.6 61 6.0 NNW 20 26 11 14 1005.7 - 0.0
21/04:00pm 33.4 36.2 24.3 59 6.4 NW 17 24 9 13 1005.8 - 0.0
21/03:30pm 33.5 35.8 24.1 58 6.6 NNW 19 26 10 14 1005.9 - 0.0
21/03:00pm 32.9 35.6 24.1 60 6.2 NNW 17 26 9 14 1006.3 1006.1 0.0
21/02:30pm 33.1 34.8 24.6 61 6.0 NNW 24 28 13 15 1006.6 - 0.0
21/02:00pm 33.3 36.5 25.0 61 5.9 NW 17 30 9 16 1007.0 - 0.0
21/01:30pm 32.9 35.8 24.4 61 6.0 NW 17 24 9 13 1007.4 - 0.0
21/01:00pm 32.5 35.7 24.3 62 5.7 NNW 15 24 8 13 1007.8 - 0.0
21/12:30pm 31.3 34.5 24.9 69 4.5 NW 17 22 9 12 1008.2 - 0.0
21/12:00pm 32.5 35.6 26.3 70 4.5 NNW 22 28 12 15 1008.5 1008.3 0.0
21/11:30am 32.2 36.0 24.0 62 5.7 N 11 17 6 9 1008.7 - 0.0

Other Formats:

Comma delimited format used in spreadsheet applications
http://www.bom.gov.au/fwo/IDQ60801/IDQ60801.94266.axf

JavaScript Object Notation format (JSON) in row-major order
http://www.bom.gov.au/fwo/IDQ60801/IDQ60801.94266.json